Time;durP1;ratioP1;P1;durP2;ratioP2;P2;SDS_P1;SDS_P2;PMS_P1;PMS_P2;Temp;Humidity;BMP_temperature;BMP_pressure;BME280_temperature;BME280_humidity;BME280_pressure;Samples;Min_cycle;Max_cycle;Signal;HPM_P1;HPM_P2
2022/03/23 00:01:52;;;;;;;10.38;8.93;;;;;;;;;;5088404;28;20354;-73
2022/03/23 00:04:19;;;;;;;15.43;9.00;;;;;;;;;;5089145;28;20469;-73
2022/03/23 00:06:45;;;;;;;11.20;9.32;;;;;;;;;;5087207;28;20044;-74
2022/03/23 00:09:12;;;;;;;12.65;9.38;;;;;;;;;;5087697;28;20052;-74
2022/03/23 00:11:39;;;;;;;12.48;9.63;;;;;;;;;;5088941;28;20052;-73
2022/03/23 00:14:06;;;;;;;13.00;9.75;;;;;;;;;;5087797;28;20248;-74
2022/03/23 00:16:32;;;;;;;14.60;10.45;;;;;;;;;;5087339;28;20044;-74
2022/03/23 00:18:58;;;;;;;10.75;9.60;;;;;;;;;;5089025;28;20044;-74
2022/03/23 00:21:25;;;;;;;12.98;9.68;;;;;;;;;;5087274;28;20067;-74
2022/03/23 00:23:51;;;;;;;14.70;9.73;;;;;;;;;;5087346;28;20064;-74
2022/03/23 00:26:17;;;;;;;14.95;10.02;;;;;;;;;;5086836;28;20069;-75
2022/03/23 00:28:43;;;;;;;14.40;11.02;;;;;;;;;;5088645;28;20087;-74
2022/03/23 00:31:09;;;;;;;12.15;9.98;;;;;;;;;;5088759;28;20139;-75
2022/03/23 00:33:36;;;;;;;11.15;9.52;;;;;;;;;;5092361;28;20051;-74
2022/03/23 00:36:02;;;;;;;12.65;10.10;;;;;;;;;;5108692;28;20048;-74
2022/03/23 00:38:29;;;;;;;12.77;10.32;;;;;;;;;;5090266;28;20048;-74
2022/03/23 00:40:55;;;;;;;11.95;10.55;;;;;;;;;;5108668;28;20051;-74
2022/03/23 00:43:21;;;;;;;12.65;10.15;;;;;;;;;;5109135;28;20051;-75
2022/03/23 00:45:47;;;;;;;13.13;10.52;;;;;;;;;;5090880;28;20043;-75
2022/03/23 00:48:13;;;;;;;14.07;10.20;;;;;;;;;;5108486;28;20126;-74
2022/03/23 00:50:40;;;;;;;14.40;10.20;;;;;;;;;;5108948;28;20173;-74
2022/03/23 00:53:06;;;;;;;13.02;10.63;;;;;;;;;;5090452;28;20052;-74
2022/03/23 00:55:33;;;;;;;14.15;10.27;;;;;;;;;;5090460;28;20101;-75
2022/03/23 00:57:59;;;;;;;14.15;10.30;;;;;;;;;;5108880;28;20055;-75
2022/03/23 01:00:25;;;;;;;11.77;10.38;;;;;;;;;;5108579;28;20039;-75
2022/03/23 01:02:52;;;;;;;12.80;9.98;;;;;;;;;;5089737;28;20108;-74
2022/03/23 01:05:19;;;;;;;12.10;10.55;;;;;;;;;;5090171;28;20052;-74
2022/03/23 01:07:46;;;;;;;12.63;9.93;;;;;;;;;;5090230;28;20104;-75
2022/03/23 01:10:13;;;;;;;14.32;10.35;;;;;;;;;;5108917;28;20051;-75
2022/03/23 01:12:40;;;;;;;12.60;10.88;;;;;;;;;;5073118;28;20142;-75
2022/03/23 01:15:08;;;;;;;12.20;10.25;;;;;;;;;;5108548;28;20048;-74
2022/03/23 01:17:34;;;;;;;13.70;10.90;;;;;;;;;;5108283;28;20040;-74
2022/03/23 01:20:00;;;;;;;11.77;10.50;;;;;;;;;;5107693;28;20059;-74
2022/03/23 01:22:26;;;;;;;12.52;10.80;;;;;;;;;;5108440;28;20169;-74
2022/03/23 01:24:52;;;;;;;14.23;11.13;;;;;;;;;;5108219;28;20044;-74
2022/03/23 01:27:18;;;;;;;12.63;10.85;;;;;;;;;;5090363;28;20052;-74
2022/03/23 01:29:44;;;;;;;11.88;10.13;;;;;;;;;;5108162;28;20035;-74
2022/03/23 01:32:10;;;;;;;12.65;10.38;;;;;;;;;;5107817;28;20557;-75
2022/03/23 01:34:36;;;;;;;11.90;10.35;;;;;;;;;;5111987;28;20146;-74
2022/03/23 01:37:02;;;;;;;12.27;10.45;;;;;;;;;;5111933;28;20526;-74
2022/03/23 01:39:28;;;;;;;13.18;10.95;;;;;;;;;;5112338;28;20043;-74
2022/03/23 01:41:55;;;;;;;12.68;10.75;;;;;;;;;;5094051;28;20043;-75
2022/03/23 01:44:22;;;;;;;11.40;10.15;;;;;;;;;;5093693;28;20405;-75
2022/03/23 01:46:58;;;;;;;14.23;10.75;;;;;;;;;;5093452;28;20043;-74
2022/03/23 01:49:25;;;;;;;12.75;10.93;;;;;;;;;;5093449;28;20055;-74
2022/03/23 01:51:51;;;;;;;12.30;10.70;;;;;;;;;;5093037;28;20040;-74
2022/03/23 01:54:17;;;;;;;12.90;10.23;;;;;;;;;;5111418;28;20379;-74
2022/03/23 01:56:43;;;;;;;11.90;9.90;;;;;;;;;;5093366;28;20463;-74
2022/03/23 01:59:09;;;;;;;12.30;10.40;;;;;;;;;;5110938;28;20142;-74
2022/03/23 02:01:36;;;;;;;14.63;10.73;;;;;;;;;;5111366;28;20040;-74
2022/03/23 02:04:02;;;;;;;12.55;10.38;;;;;;;;;;5110743;28;20047;-74
2022/03/23 02:06:28;;;;;;;13.18;10.75;;;;;;;;;;5075413;28;20039;-74
2022/03/23 02:08:54;;;;;;;11.85;10.55;;;;;;;;;;5075765;28;20508;-74
2022/03/23 02:11:21;;;;;;;12.43;10.05;;;;;;;;;;5092633;28;20078;-74
2022/03/23 02:13:48;;;;;;;12.95;10.73;;;;;;;;;;5092835;28;20083;-74
2022/03/23 02:16:14;;;;;;;11.93;10.68;;;;;;;;;;5111132;28;20142;-74
2022/03/23 02:18:40;;;;;;;12.77;10.73;;;;;;;;;;5092276;28;20431;-74
2022/03/23 02:21:06;;;;;;;12.55;11.23;;;;;;;;;;5110880;28;20048;-74
2022/03/23 02:23:32;;;;;;;12.30;10.52;;;;;;;;;;5111156;28;20086;-74
2022/03/23 02:26:02;;;;;;;12.30;10.70;;;;;;;;;;5092095;28;20047;-74
2022/03/23 02:28:29;;;;;;;12.40;9.93;;;;;;;;;;5092521;28;20043;-74
2022/03/23 02:30:55;;;;;;;13.68;10.48;;;;;;;;;;5092847;28;20043;-74
2022/03/23 02:33:21;;;;;;;13.10;11.32;;;;;;;;;;5111009;28;20116;-74
2022/03/23 02:35:48;;;;;;;12.80;10.40;;;;;;;;;;5092590;28;20052;-74
2022/03/23 02:38:16;;;;;;;12.45;11.15;;;;;;;;;;5093259;28;20088;-74
2022/03/23 02:40:42;;;;;;;13.00;10.10;;;;;;;;;;5110940;28;20052;-74
2022/03/23 02:43:08;;;;;;;13.13;11.15;;;;;;;;;;5110860;28;20054;-74
2022/03/23 02:45:35;;;;;;;12.05;10.82;;;;;;;;;;5110979;28;20043;-74
2022/03/23 02:48:03;;;;;;;12.20;10.70;;;;;;;;;;5075430;28;20096;-74
2022/03/23 02:50:29;;;;;;;13.48;11.55;;;;;;;;;;5092985;28;20387;-74
2022/03/23 03:04:13;;;;;;;14.68;10.57;;;;;;;;;;5092090;28;20501;-75
2022/03/23 03:06:39;;;;;;;18.67;11.93;;;;;;;;;;5110613;28;20046;-76
2022/03/23 03:09:05;;;;;;;13.75;11.32;;;;;;;;;;5092026;28;20044;-76
2022/03/23 03:11:31;;;;;;;12.77;11.18;;;;;;;;;;5110193;28;20126;-76
2022/03/23 03:13:57;;;;;;;13.27;11.63;;;;;;;;;;5110520;28;20436;-76
2022/03/23 03:16:24;;;;;;;15.10;12.15;;;;;;;;;;5075386;28;20043;-76
2022/03/23 03:18:50;;;;;;;14.75;11.45;;;;;;;;;;5091400;28;20051;-76
2022/03/23 03:21:16;;;;;;;12.90;11.45;;;;;;;;;;5092079;28;20051;-76
2022/03/23 03:23:43;;;;;;;12.93;11.27;;;;;;;;;;5110199;28;20476;-76
2022/03/23 03:26:13;;;;;;;13.27;11.23;;;;;;;;;;5075209;28;20134;-76
2022/03/23 03:28:40;;;;;;;15.93;11.77;;;;;;;;;;5110087;28;20184;-76
2022/03/23 03:31:07;;;;;;;14.65;11.88;;;;;;;;;;5109742;28;20474;-76
2022/03/23 03:33:33;;;;;;;13.07;11.63;;;;;;;;;;5087827;28;20438;-76
2022/03/23 03:36:00;;;;;;;13.93;12.13;;;;;;;;;;5089820;28;20506;-73
2022/03/23 03:38:30;;;;;;;13.52;11.55;;;;;;;;;;5088124;28;20056;-76
2022/03/23 03:40:57;;;;;;;15.30;12.02;;;;;;;;;;5088385;28;20117;-73
2022/03/23 03:43:24;;;;;;;15.25;11.60;;;;;;;;;;5071011;28;20487;-74
2022/03/23 03:45:50;;;;;;;14.02;11.57;;;;;;;;;;5088143;28;20052;-74
2022/03/23 03:48:17;;;;;;;16.65;12.20;;;;;;;;;;5071347;28;20047;-74
2022/03/23 03:50:43;;;;;;;18.73;13.23;;;;;;;;;;5089204;28;20051;-74
2022/03/23 03:53:10;;;;;;;14.02;12.27;;;;;;;;;;5087838;28;20405;-74
2022/03/23 03:55:38;;;;;;;16.10;12.02;;;;;;;;;;5088285;28;20463;-74
2022/03/23 03:58:05;;;;;;;15.02;12.68;;;;;;;;;;5088777;28;20044;-73
2022/03/23 04:00:34;;;;;;;15.40;12.68;;;;;;;;;;5089242;28;20044;-74
2022/03/23 04:03:00;;;;;;;15.95;12.48;;;;;;;;;;5087279;28;20052;-74
2022/03/23 04:05:28;;;;;;;15.13;12.27;;;;;;;;;;5089382;28;20148;-74
2022/03/23 04:07:55;;;;;;;14.95;11.90;;;;;;;;;;5088734;28;20048;-74
2022/03/23 04:10:21;;;;;;;14.73;12.57;;;;;;;;;;5088763;28;20044;-73
2022/03/23 04:12:47;;;;;;;15.32;12.88;;;;;;;;;;5088905;28;20498;-74
2022/03/23 04:15:19;;;;;;;17.05;12.80;;;;;;;;;;5088577;28;20052;-73
2022/03/23 04:17:45;;;;;;;16.83;12.80;;;;;;;;;;5087389;28;20056;-74
2022/03/23 04:20:12;;;;;;;16.02;12.57;;;;;;;;;;5087502;28;20048;-74
2022/03/23 04:22:41;;;;;;;15.93;12.95;;;;;;;;;;5087408;28;20113;-74
2022/03/23 04:25:07;;;;;;;;;;;;;;;;;;5089474;28;20056;-74
2022/03/23 04:27:34;;;;;;;12.88;11.15;;;;;;;;;;5087031;28;19927;-74
2022/03/23 04:30:00;;;;;;;14.88;11.93;;;;;;;;;;5088014;28;20051;-74
2022/03/23 04:32:26;;;;;;;14.35;12.43;;;;;;;;;;5087623;28;20040;-74
2022/03/23 04:34:52;;;;;;;16.90;12.90;;;;;;;;;;5102897;28;20060;-74
2022/03/23 04:37:18;;;;;;;16.08;12.80;;;;;;;;;;5108265;28;20056;-75
2022/03/23 04:39:44;;;;;;;13.60;11.68;;;;;;;;;;5090753;28;20463;-74
2022/03/23 04:42:10;;;;;;;14.30;12.52;;;;;;;;;;5091002;28;20082;-75
2022/03/23 04:44:36;;;;;;;15.20;12.35;;;;;;;;;;5108406;28;20051;-74
2022/03/23 04:47:03;;;;;;;13.63;12.15;;;;;;;;;;5108357;28;20052;-75
2022/03/23 04:49:29;;;;;;;13.98;12.45;;;;;;;;;;5073978;28;20068;-75
2022/03/23 04:51:55;;;;;;;14.23;12.40;;;;;;;;;;5108590;28;20485;-74
2022/03/23 04:54:21;;;;;;;14.95;11.88;;;;;;;;;;5108576;28;20480;-74
2022/03/23 04:56:47;;;;;;;13.98;11.63;;;;;;;;;;5108549;28;20498;-75
2022/03/23 04:59:13;;;;;;;14.30;12.00;;;;;;;;;;5108237;28;20048;-75
2022/03/23 05:01:39;;;;;;;14.43;12.45;;;;;;;;;;5108912;28;20460;-75
2022/03/23 05:04:06;;;;;;;14.15;12.00;;;;;;;;;;5108600;28;20359;-76
2022/03/23 05:06:32;;;;;;;14.40;11.90;;;;;;;;;;5108806;28;20056;-76
2022/03/23 05:08:59;;;;;;;15.57;11.57;;;;;;;;;;5094428;28;20134;-75
2022/03/23 05:11:25;;;;;;;12.90;11.25;;;;;;;;;;5094372;28;20054;-75
2022/03/23 05:13:51;;;;;;;12.73;11.38;;;;;;;;;;5094457;28;20501;-75
2022/03/23 05:16:18;;;;;;;16.90;11.63;;;;;;;;;;5094352;28;20409;-75
2022/03/23 05:18:45;;;;;;;13.55;11.63;;;;;;;;;;5112552;28;20047;-75
2022/03/23 05:21:11;;;;;;;13.55;11.88;;;;;;;;;;5094051;28;20054;-75
2022/03/23 05:23:37;;;;;;;14.30;12.15;;;;;;;;;;5112130;28;20513;-75
2022/03/23 05:26:03;;;;;;;13.25;11.85;;;;;;;;;;5076594;28;20051;-75
2022/03/23 05:28:29;;;;;;;15.27;11.45;;;;;;;;;;5112013;28;20128;-75
2022/03/23 05:30:55;;;;;;;13.48;12.00;;;;;;;;;;5111067;28;20395;-75
2022/03/23 05:33:21;;;;;;;14.13;12.63;;;;;;;;;;5092604;28;20040;-75
2022/03/23 05:35:48;;;;;;;13.52;11.93;;;;;;;;;;5093219;28;20060;-75
2022/03/23 05:38:14;;;;;;;13.32;11.93;;;;;;;;;;5111604;28;20040;-75
2022/03/23 05:40:40;;;;;;;11.98;10.68;;;;;;;;;;5111832;28;20461;-75
2022/03/23 05:43:06;;;;;;;14.45;11.90;;;;;;;;;;5111855;28;20512;-75
2022/03/23 05:45:32;;;;;;;12.18;10.65;;;;;;;;;;5112034;28;20485;-75
2022/03/23 05:47:58;;;;;;;15.80;11.98;;;;;;;;;;5111440;28;20062;-74
2022/03/23 05:50:25;;;;;;;13.38;11.90;;;;;;;;;;5112436;28;20135;-74
2022/03/23 05:52:51;;;;;;;16.98;10.80;;;;;;;;;;5111848;28;20424;-74
2022/03/23 05:55:17;;;;;;;14.68;11.55;;;;;;;;;;5094117;28;20455;-74
2022/03/23 05:57:43;;;;;;;14.32;11.63;;;;;;;;;;5111723;28;20054;-74
2022/03/23 06:00:09;;;;;;;14.38;12.10;;;;;;;;;;5111268;28;20048;-74
2022/03/23 06:02:36;;;;;;;14.55;11.73;;;;;;;;;;5111828;28;20046;-74
2022/03/23 06:05:02;;;;;;;14.32;12.10;;;;;;;;;;5111874;28;20131;-75
2022/03/23 06:07:28;;;;;;;14.00;12.07;;;;;;;;;;5123066;27;20054;-75
2022/03/23 06:09:54;;;;;;;13.65;11.52;;;;;;;;;;5130912;27;20092;-75
2022/03/23 06:12:21;;;;;;;14.43;11.63;;;;;;;;;;5119768;27;20036;-74
2022/03/23 06:14:47;;;;;;;13.60;11.93;;;;;;;;;;5128226;27;20070;-75
2022/03/23 06:17:13;;;;;;;13.88;12.38;;;;;;;;;;5111428;28;20043;-75
2022/03/23 06:19:39;;;;;;;16.20;12.52;;;;;;;;;;5092429;28;20047;-75
2022/03/23 06:22:06;;;;;;;13.00;11.55;;;;;;;;;;5111019;28;20134;-74
2022/03/23 06:24:32;;;;;;;14.98;12.60;;;;;;;;;;5111148;28;20120;-77
2022/03/23 06:26:58;;;;;;;15.02;12.15;;;;;;;;;;5093104;28;20073;-74
2022/03/23 06:29:24;;;;;;;14.73;11.38;;;;;;;;;;5111611;28;20043;-74
2022/03/23 06:31:51;;;;;;;15.75;10.98;;;;;;;;;;5076567;28;20409;-74
2022/03/23 06:34:17;;;;;;;15.45;12.05;;;;;;;;;;5110917;28;20052;-74
2022/03/23 06:36:43;;;;;;;13.35;11.20;;;;;;;;;;5110893;28;20047;-74
2022/03/23 06:39:09;;;;;;;15.32;11.45;;;;;;;;;;5111405;28;20124;-74
2022/03/23 06:41:35;;;;;;;14.80;11.25;;;;;;;;;;5111232;28;20619;-74
2022/03/23 06:44:02;;;;;;;14.10;11.45;;;;;;;;;;5092780;28;20390;-74
2022/03/23 06:46:28;;;;;;;16.85;11.90;;;;;;;;;;5111321;28;20047;-74
2022/03/23 06:48:54;;;;;;;15.77;11.40;;;;;;;;;;5075975;28;20113;-74
2022/03/23 06:51:20;;;;;;;21.85;11.10;;;;;;;;;;5076562;28;20104;-74
2022/03/23 06:53:46;;;;;;;14.75;11.98;;;;;;;;;;5110856;28;20126;-75
2022/03/23 06:56:12;;;;;;;14.70;11.27;;;;;;;;;;5092480;28;20047;-74
2022/03/23 06:58:38;;;;;;;14.00;11.40;;;;;;;;;;5110398;28;20044;-73
2022/03/23 07:01:07;;;;;;;19.23;11.30;;;;;;;;;;5110347;28;20147;-74
2022/03/23 07:03:33;;;;;;;15.20;11.27;;;;;;;;;;5110725;28;20084;-75
2022/03/23 07:05:59;;;;;;;14.05;11.10;;;;;;;;;;5109625;28;20055;-74
2022/03/23 07:11:10;;;;;;;17.73;10.65;;;;;;;;;;5092026;28;20096;-74
2022/03/23 07:13:36;;;;;;;14.13;11.35;;;;;;;;;;5109742;28;20063;-75
2022/03/23 07:16:02;;;;;;;14.65;11.02;;;;;;;;;;5109825;28;20058;-74
2022/03/23 07:18:28;;;;;;;15.43;10.63;;;;;;;;;;5110150;28;20066;-72
2022/03/23 07:20:55;;;;;;;20.48;10.80;;;;;;;;;;5074786;28;20052;-73
2022/03/23 07:23:21;;;;;;;14.65;10.85;;;;;;;;;;5109473;28;20063;-72
2022/03/23 07:25:47;;;;;;;15.30;10.57;;;;;;;;;;5109567;28;20271;-72
2022/03/23 07:28:13;;;;;;;12.40;10.82;;;;;;;;;;5109584;28;20048;-74
2022/03/23 07:30:40;;;;;;;17.80;10.57;;;;;;;;;;5110487;28;20048;-73
2022/03/23 07:33:07;;;;;;;14.85;11.30;;;;;;;;;;5110694;28;20047;-72
2022/03/23 07:35:33;;;;;;;13.70;11.20;;;;;;;;;;5109632;28;20150;-74
2022/03/23 07:37:59;;;;;;;14.68;10.57;;;;;;;;;;5109900;28;20915;-73
2022/03/23 07:40:25;;;;;;;15.27;11.25;;;;;;;;;;5092274;28;20051;-72
2022/03/23 07:42:51;;;;;;;14.35;11.68;;;;;;;;;;5091851;28;20055;-71
2022/03/23 07:45:17;;;;;;;15.52;11.73;;;;;;;;;;5092254;28;20624;-72
2022/03/23 07:47:44;;;;;;;18.90;12.15;;;;;;;;;;5109751;28;20048;-72
2022/03/23 07:50:10;;;;;;;15.95;10.95;;;;;;;;;;5074934;28;20126;-72
2022/03/23 07:52:36;;;;;;;15.88;11.50;;;;;;;;;;5091505;28;20051;-74
2022/03/23 07:55:03;;;;;;;17.17;11.52;;;;;;;;;;5110004;28;20446;-71
2022/03/23 07:57:29;;;;;;;17.98;11.07;;;;;;;;;;5074947;28;20078;-75
2022/03/23 07:59:55;;;;;;;17.45;9.90;;;;;;;;;;5090253;28;20051;-75
2022/03/23 08:02:26;;;;;;;11.10;9.15;;;;;;;;;;5091612;28;20106;-74
2022/03/23 08:04:52;;;;;;;13.00;8.75;;;;;;;;;;5109097;28;20055;-75
2022/03/23 08:07:18;;;;;;;11.70;8.77;;;;;;;;;;5109107;28;20048;-74
2022/03/23 08:09:45;;;;;;;12.65;8.80;;;;;;;;;;5090667;28;20504;-75
2022/03/23 08:15:34;;;;;;;10.60;7.47;;;;;;;;;;5107845;28;20061;-74
2022/03/23 08:18:00;;;;;;;10.65;7.82;;;;;;;;;;5108707;28;20594;-74
2022/03/23 08:20:35;;;;;;;12.98;7.45;;;;;;;;;;5108894;28;20127;-74
2022/03/23 08:23:05;;;;;;;12.13;8.07;;;;;;;;;;5090800;28;20396;-74
2022/03/23 08:25:32;;;;;;;11.48;8.20;;;;;;;;;;5090398;28;20571;-74
2022/03/23 08:27:59;;;;;;;9.75;7.95;;;;;;;;;;5108130;28;20070;-73
2022/03/23 08:30:25;;;;;;;11.52;7.57;;;;;;;;;;5074213;28;20104;-74
2022/03/23 08:32:51;;;;;;;10.55;7.55;;;;;;;;;;5113371;27;20047;-73
2022/03/23 08:35:17;;;;;;;11.23;7.47;;;;;;;;;;5124935;27;20208;-73
2022/03/23 08:37:44;;;;;;;12.07;7.97;;;;;;;;;;5129040;27;20126;-75
2022/03/23 08:40:10;;;;;;;11.90;7.22;;;;;;;;;;5111647;27;20055;-75
2022/03/23 08:42:36;;;;;;;11.38;7.63;;;;;;;;;;5116675;27;20151;-73
2022/03/23 08:45:03;;;;;;;10.00;7.32;;;;;;;;;;5090286;28;20089;-73
2022/03/23 08:47:29;;;;;;;9.82;6.82;;;;;;;;;;5108725;28;20056;-74
2022/03/23 08:49:58;;;;;;;9.45;7.10;;;;;;;;;;5108504;28;20055;-73
2022/03/23 08:52:25;;;;;;;9.35;6.70;;;;;;;;;;5093353;28;20118;-75
2022/03/23 08:54:51;;;;;;;10.10;6.90;;;;;;;;;;5128947;28;20050;-74
2022/03/23 08:57:17;;;;;;;10.77;7.03;;;;;;;;;;5109080;28;20232;-73
2022/03/23 08:59:43;;;;;;;10.43;7.05;;;;;;;;;;5128726;28;20096;-72
2022/03/23 09:02:09;;;;;;;9.30;6.88;;;;;;;;;;5128918;28;20058;-72
2022/03/23 09:04:35;;;;;;;10.52;7.43;;;;;;;;;;5093693;28;20043;-72
2022/03/23 09:07:01;;;;;;;8.32;6.25;;;;;;;;;;5128302;28;20125;-74
2022/03/23 09:09:27;;;;;;;9.77;7.20;;;;;;;;;;5129007;28;20043;-73
2022/03/23 09:11:53;;;;;;;9.57;6.93;;;;;;;;;;5093834;28;20047;-73
2022/03/23 09:14:22;;;;;;;9.77;7.43;;;;;;;;;;5129104;28;20042;-73
2022/03/23 09:16:48;;;;;;;8.73;6.60;;;;;;;;;;5110289;28;20079;-74
2022/03/23 09:19:19;;;;;;;9.93;7.45;;;;;;;;;;5129296;28;20641;-74
2022/03/23 09:21:46;;;;;;;9.73;6.65;;;;;;;;;;5105706;28;20126;-74
2022/03/23 09:24:12;;;;;;;9.43;6.47;;;;;;;;;;5128497;28;20104;-75
2022/03/23 09:26:39;;;;;;;10.07;7.53;;;;;;;;;;5128114;28;20130;-74
2022/03/23 09:29:06;;;;;;;10.45;7.45;;;;;;;;;;5129129;28;20078;-75
2022/03/23 09:31:32;;;;;;;11.52;7.80;;;;;;;;;;5121805;28;20048;-75
2022/03/23 09:33:58;;;;;;;11.73;8.10;;;;;;;;;;5088798;28;20497;-75
2022/03/23 09:39:09;;;;;;;13.50;8.20;;;;;;;;;;5128735;28;20435;-77
2022/03/23 09:41:35;;;;;;;11.48;8.32;;;;;;;;;;5127556;28;20039;-77
2022/03/23 09:44:02;;;;;;;11.63;7.93;;;;;;;;;;5127674;28;20420;-78
2022/03/23 09:46:28;;;;;;;13.68;8.20;;;;;;;;;;5128704;28;20039;-74
2022/03/23 09:48:54;;;;;;;11.48;7.60;;;;;;;;;;5101462;28;20500;-73
2022/03/23 09:51:23;;;;;;;22.50;8.07;;;;;;;;;;5112218;28;20048;-76
2022/03/23 09:53:50;;;;;;;12.68;8.50;;;;;;;;;;5098788;27;20069;-75
2022/03/23 09:56:16;;;;;;;11.82;8.20;;;;;;;;;;5112702;27;20043;-75
2022/03/23 09:58:45;;;;;;;14.20;8.57;;;;;;;;;;5113381;27;20043;-72
2022/03/23 10:01:11;;;;;;;;;;;;;;;;;;5112457;27;20090;-73
2022/03/23 10:03:56;;;;;;;15.38;9.20;;;;;;;;;;5094364;27;19920;-74
2022/03/23 10:06:41;;;;;;;16.83;9.88;;;;;;;;;;5131007;27;20071;-75
2022/03/23 10:09:07;;;;;;;16.83;10.38;;;;;;;;;;5132028;27;20054;-75
2022/03/23 10:11:52;;;;;;;17.42;10.15;;;;;;;;;;5096302;27;20126;-70
2022/03/23 10:14:24;;;;;;;20.10;10.32;;;;;;;;;;5130927;27;20551;-76
2022/03/23 10:17:09;;;;;;;17.08;10.68;;;;;;;;;;5131787;27;20522;-74
2022/03/23 10:19:41;;;;;;;22.02;10.90;;;;;;;;;;5113230;27;20039;-74
2022/03/23 10:22:11;;;;;;;18.73;11.10;;;;;;;;;;5112409;27;20058;-73
2022/03/23 10:24:37;;;;;;;17.63;10.95;;;;;;;;;;5131851;27;20556;-71
2022/03/23 10:27:29;;;;;;;23.05;11.43;;;;;;;;;;5131223;27;20184;-73
2022/03/23 10:29:56;;;;;;;18.00;10.95;;;;;;;;;;5109249;27;20062;-73
2022/03/23 10:32:22;;;;;;;23.17;12.50;;;;;;;;;;5113385;27;20507;-74
2022/03/23 10:34:50;;;;;;;18.90;11.75;;;;;;;;;;5130982;27;20480;-73
2022/03/23 10:37:21;;;;;;;18.25;11.40;;;;;;;;;;5119694;27;20039;-74
2022/03/23 10:39:48;;;;;;;20.25;12.05;;;;;;;;;;5110327;28;20540;-74
2022/03/23 10:42:15;;;;;;;20.45;12.30;;;;;;;;;;5095634;27;20351;-72
2022/03/23 10:44:41;;;;;;;18.30;13.07;;;;;;;;;;5128429;27;20475;-73
2022/03/23 10:47:08;;;;;;;19.33;13.55;;;;;;;;;;5131281;27;20112;-73
2022/03/23 10:49:36;;;;;;;22.25;13.60;;;;;;;;;;5112373;27;20039;-75
2022/03/23 10:52:13;;;;;;;20.75;14.65;;;;;;;;;;5121399;27;20044;-75
2022/03/23 10:54:39;;;;;;;20.80;15.10;;;;;;;;;;5075571;27;20505;-72
2022/03/23 10:57:05;;;;;;;19.85;14.88;;;;;;;;;;5130897;27;20473;-72
2022/03/23 10:59:32;;;;;;;23.98;14.95;;;;;;;;;;5131491;27;20513;-72
2022/03/23 11:02:00;;;;;;;22.30;16.75;;;;;;;;;;5112299;27;20050;-72
2022/03/23 11:04:30;;;;;;;19.17;15.55;;;;;;;;;;5112738;27;20043;-71
2022/03/23 11:06:58;;;;;;;19.73;15.10;;;;;;;;;;5111301;27;20035;-72
2022/03/23 11:18:05;;;;;;;23.25;16.13;;;;;;;;;;5111844;27;20506;-73
2022/03/23 11:20:43;;;;;;;22.75;16.02;;;;;;;;;;5094794;27;20057;-72
2022/03/23 11:23:16;;;;;;;20.05;16.20;;;;;;;;;;5112027;27;20043;-71
2022/03/23 11:25:43;;;;;;;20.48;15.27;;;;;;;;;;5111946;27;20230;-73
2022/03/23 11:28:09;;;;;;;19.30;15.45;;;;;;;;;;5129605;27;20091;-71
2022/03/23 11:30:37;;;;;;;19.30;15.73;;;;;;;;;;5112076;27;20039;-72
2022/03/23 11:33:04;;;;;;;19.55;15.52;;;;;;;;;;5111669;27;20062;-73
2022/03/23 11:35:31;;;;;;;19.90;15.38;;;;;;;;;;5111914;27;20551;-73
2022/03/23 11:37:57;;;;;;;19.83;16.10;;;;;;;;;;5129271;27;20054;-74
2022/03/23 11:40:23;;;;;;;20.67;14.50;;;;;;;;;;5111986;27;20058;-72
2022/03/23 11:42:49;;;;;;;22.83;14.57;;;;;;;;;;5130397;27;20585;-73
2022/03/23 11:45:15;;;;;;;19.15;14.18;;;;;;;;;;5094796;27;20437;-73
2022/03/23 11:47:54;;;;;;;15.48;13.57;;;;;;;;;;5112402;27;20057;-72
2022/03/23 11:50:26;;;;;;;15.70;13.20;;;;;;;;;;5111977;27;20039;-72
2022/03/23 11:52:52;;;;;;;15.50;12.75;;;;;;;;;;5111760;27;20702;-72
2022/03/23 11:55:39;;;;;;;15.95;12.27;;;;;;;;;;5130375;27;20138;-72
2022/03/23 11:58:21;;;;;;;17.75;13.10;;;;;;;;;;5129266;27;20133;-72
2022/03/23 12:00:51;;;;;;;17.08;12.80;;;;;;;;;;5111977;27;20058;-71
2022/03/23 12:03:36;;;;;;;15.15;12.70;;;;;;;;;;5111890;27;20051;-71
2022/03/23 12:06:09;;;;;;;17.90;12.38;;;;;;;;;;5111793;27;20043;-73
2022/03/23 12:08:49;;;;;;;17.33;12.23;;;;;;;;;;5129794;27;20096;-75
2022/03/23 12:11:35;;;;;;;17.92;12.45;;;;;;;;;;5129510;27;20126;-71
2022/03/23 12:14:02;;;;;;;18.45;13.60;;;;;;;;;;5129613;27;20043;-72
2022/03/23 12:17:01;;;;;;;17.80;12.45;;;;;;;;;;5109759;27;20039;-72
2022/03/23 12:19:28;;;;;;;14.30;11.90;;;;;;;;;;5128761;27;20047;-72
2022/03/23 12:22:07;;;;;;;15.50;11.38;;;;;;;;;;5112064;27;20439;-72
2022/03/23 12:24:36;;;;;;;16.98;12.57;;;;;;;;;;5130374;27;20419;-72
2022/03/23 12:27:06;;;;;;;14.55;10.73;;;;;;;;;;5111239;27;20480;-71
2022/03/23 12:29:35;;;;;;;17.02;11.13;;;;;;;;;;5107757;27;20349;-72
2022/03/23 12:32:06;;;;;;;17.73;11.10;;;;;;;;;;5108130;27;20102;-72
2022/03/23 12:34:32;;;;;;;17.58;11.27;;;;;;;;;;5129517;27;20062;-71
2022/03/23 12:37:10;;;;;;;15.75;11.10;;;;;;;;;;5129572;27;20043;-72
2022/03/23 12:39:37;;;;;;;14.75;11.48;;;;;;;;;;5127701;27;20131;-73
2022/03/23 12:42:24;;;;;;;14.25;11.30;;;;;;;;;;5109603;27;20131;-73
2022/03/23 12:45:03;;;;;;;15.50;11.63;;;;;;;;;;5111067;27;20329;-74
2022/03/23 12:47:30;;;;;;;15.32;11.48;;;;;;;;;;5129327;27;20107;-72
2022/03/23 12:58:34;;;;;;;13.80;10.70;;;;;;;;;;5107549;28;20075;-73
2022/03/23 13:01:13;;;;;;;15.70;11.07;;;;;;;;;;5107890;28;20561;-73
2022/03/23 13:03:42;;;;;;;17.42;11.20;;;;;;;;;;5126171;28;20047;-73
2022/03/23 13:06:13;;;;;;;18.02;11.15;;;;;;;;;;5091787;28;20477;-71
2022/03/23 13:08:47;;;;;;;16.38;10.88;;;;;;;;;;5091898;28;20434;-72
2022/03/23 13:11:14;;;;;;;14.45;10.23;;;;;;;;;;5104341;28;20083;-72
2022/03/23 13:13:41;;;;;;;16.23;10.68;;;;;;;;;;5106465;28;20370;-74
2022/03/23 13:16:11;;;;;;;14.48;10.65;;;;;;;;;;5126253;28;20043;-72
2022/03/23 13:18:38;;;;;;;13.52;10.10;;;;;;;;;;5106025;28;20100;-72
2022/03/23 13:21:08;;;;;;;16.77;10.10;;;;;;;;;;5108440;28;20137;-72
2022/03/23 13:23:35;;;;;;;11.65;9.73;;;;;;;;;;5124749;28;20046;-74
2022/03/23 13:26:06;;;;;;;13.18;9.20;;;;;;;;;;5107458;28;20074;-74
2022/03/23 13:28:35;;;;;;;13.55;9.45;;;;;;;;;;5127934;27;20047;-73
2022/03/23 13:31:03;;;;;;;13.32;9.82;;;;;;;;;;5095824;27;20126;-74
2022/03/23 13:33:55;;;;;;;12.55;9.43;;;;;;;;;;5110132;27;21365;-70
2022/03/23 13:36:23;;;;;;;27.30;9.10;;;;;;;;;;5109015;27;20051;-68
2022/03/23 13:38:50;;;;;;;15.50;9.25;;;;;;;;;;5130860;27;20063;-68
2022/03/23 13:44:02;;;;;;;22.00;9.05;;;;;;;;;;5129037;27;20035;-68
2022/03/23 13:46:29;;;;;;;18.00;8.82;;;;;;;;;;5112553;27;20051;-68
2022/03/23 13:49:00;;;;;;;12.05;8.82;;;;;;;;;;5130021;27;20105;-67
2022/03/23 13:51:32;;;;;;;13.10;9.05;;;;;;;;;;5128853;27;20039;-67
2022/03/23 13:53:58;;;;;;;15.88;8.93;;;;;;;;;;5130338;27;20047;-67
2022/03/23 13:56:26;;;;;;;10.88;8.20;;;;;;;;;;5129405;27;20124;-68
2022/03/23 13:58:52;;;;;;;11.15;8.10;;;;;;;;;;5112371;27;20042;-67
2022/03/23 14:01:18;;;;;;;14.50;8.18;;;;;;;;;;5130933;27;20073;-67
2022/03/23 14:03:45;;;;;;;11.52;8.25;;;;;;;;;;5129805;27;20123;-66
2022/03/23 14:06:14;;;;;;;10.80;8.10;;;;;;;;;;5130594;27;20043;-67
2022/03/23 14:08:40;;;;;;;13.18;8.35;;;;;;;;;;5129800;27;20055;-67
2022/03/23 14:11:10;;;;;;;13.32;8.40;;;;;;;;;;5094318;27;20043;-68
2022/03/23 14:13:38;;;;;;;12.85;7.75;;;;;;;;;;5127113;27;20043;-67
2022/03/23 14:16:05;;;;;;;11.18;7.25;;;;;;;;;;5129497;27;20047;-66
2022/03/23 14:18:31;;;;;;;10.25;6.75;;;;;;;;;;5111838;27;20076;-66
2022/03/23 14:20:58;;;;;;;10.63;7.43;;;;;;;;;;5111783;27;20051;-66
2022/03/23 14:23:28;;;;;;;11.75;7.60;;;;;;;;;;5112052;27;20401;-67
2022/03/23 14:26:15;;;;;;;10.27;7.10;;;;;;;;;;5112130;27;20381;-66
2022/03/23 14:28:47;;;;;;;11.60;7.60;;;;;;;;;;5100025;27;20488;-67
2022/03/23 14:31:18;;;;;;;10.20;7.50;;;;;;;;;;5130014;27;20032;-67
2022/03/23 14:33:51;;;;;;;10.75;7.25;;;;;;;;;;5109801;27;20039;-67
2022/03/23 14:36:28;;;;;;;11.82;7.03;;;;;;;;;;5110808;27;20055;-68
2022/03/23 14:38:54;;;;;;;12.32;6.72;;;;;;;;;;5128780;27;20103;-67
2022/03/23 14:41:20;;;;;;;8.93;6.00;;;;;;;;;;5128896;27;20054;-68
2022/03/23 14:43:50;;;;;;;8.00;6.50;;;;;;;;;;5092728;27;20066;-67
2022/03/23 14:46:24;;;;;;;8.90;7.07;;;;;;;;;;5111084;27;20037;-69
2022/03/23 14:49:03;;;;;;;9.57;6.55;;;;;;;;;;5129859;27;20078;-67
2022/03/23 14:51:29;;;;;;;8.85;6.13;;;;;;;;;;5126242;27;20122;-68
2022/03/23 14:53:55;;;;;;;8.52;6.05;;;;;;;;;;5110318;27;20046;-68
2022/03/23 14:56:22;;;;;;;8.75;6.28;;;;;;;;;;5110225;27;20039;-68
2022/03/23 14:58:48;;;;;;;7.75;5.57;;;;;;;;;;5128630;27;20047;-67
2022/03/23 15:01:14;;;;;;;11.15;6.32;;;;;;;;;;5094638;27;20046;-68
2022/03/23 15:03:40;;;;;;;8.88;6.10;;;;;;;;;;5110485;27;20124;-67
2022/03/23 15:14:22;;;;;;;12.15;5.72;;;;;;;;;;5110226;27;20417;-69
2022/03/23 15:16:48;;;;;;;9.25;5.70;;;;;;;;;;5123055;27;20354;-72